sensor_id;sensor_type;location;lat;lon;timestamp;pressure;altitude;pressure_sealevel;temperature;humidity
80781;BME280;70341;56.408;10.874;2024-03-02T00:02:06;100827.23;;;20.04;44.72
80781;BME280;70341;56.408;10.874;2024-03-02T00:04:35;100815.00;;;20.04;44.74
80781;BME280;70341;56.408;10.874;2024-03-02T00:07:06;100810.89;;;20.03;44.72
80781;BME280;70341;56.408;10.874;2024-03-02T00:09:34;100812.88;;;20.03;44.75
80781;BME280;70341;56.408;10.874;2024-03-02T00:12:04;100809.80;;;20.03;44.64
80781;BME280;70341;56.408;10.874;2024-03-02T00:14:33;100811.11;;;20.03;44.76
80781;BME280;70341;56.408;10.874;2024-03-02T00:17:03;100811.51;;;20.02;44.69
80781;BME280;70341;56.408;10.874;2024-03-02T00:19:31;100814.26;;;20.02;44.74
80781;BME280;70341;56.408;10.874;2024-03-02T00:22:02;100810.66;;;20.01;44.67
80781;BME280;70341;56.408;10.874;2024-03-02T00:24:34;100811.60;;;20.01;44.69
80781;BME280;70341;56.408;10.874;2024-03-02T00:27:05;100812.34;;;20.01;44.63
80781;BME280;70341;56.408;10.874;2024-03-02T00:29:35;100813.77;;;20.01;44.60
80781;BME280;70341;56.408;10.874;2024-03-02T00:32:12;100809.31;;;20.00;44.65
80781;BME280;70341;56.408;10.874;2024-03-02T00:34:43;100807.13;;;20.01;44.66
80781;BME280;70341;56.408;10.874;2024-03-02T00:37:11;100809.32;;;20.00;44.65
80781;BME280;70341;56.408;10.874;2024-03-02T00:39:41;100808.09;;;20.00;44.61
80781;BME280;70341;56.408;10.874;2024-03-02T00:42:11;100811.92;;;19.99;44.64
80781;BME280;70341;56.408;10.874;2024-03-02T00:44:41;100812.46;;;19.99;44.65
80781;BME280;70341;56.408;10.874;2024-03-02T00:47:09;100812.14;;;19.99;44.59
80781;BME280;70341;56.408;10.874;2024-03-02T00:49:39;100806.95;;;19.98;44.59
80781;BME280;70341;56.408;10.874;2024-03-02T00:52:09;100810.15;;;19.99;44.50
80781;BME280;70341;56.408;10.874;2024-03-02T00:54:39;100809.29;;;19.99;44.52
80781;BME280;70341;56.408;10.874;2024-03-02T00:57:11;100803.52;;;19.99;44.52
80781;BME280;70341;56.408;10.874;2024-03-02T00:59:40;100802.44;;;19.99;44.48
80781;BME280;70341;56.408;10.874;2024-03-02T01:02:09;100795.93;;;19.99;44.51
80781;BME280;70341;56.408;10.874;2024-03-02T01:04:39;100787.30;;;19.98;44.52
80781;BME280;70341;56.408;10.874;2024-03-02T01:07:07;100785.55;;;19.98;44.49
80781;BME280;70341;56.408;10.874;2024-03-02T01:09:37;100781.98;;;19.97;44.47
80781;BME280;70341;56.408;10.874;2024-03-02T01:12:06;100782.75;;;19.97;44.45
80781;BME280;70341;56.408;10.874;2024-03-02T01:14:36;100779.02;;;19.96;44.46
80781;BME280;70341;56.408;10.874;2024-03-02T01:17:04;100777.20;;;19.96;44.44
80781;BME280;70341;56.408;10.874;2024-03-02T01:19:34;100771.27;;;19.96;44.49
80781;BME280;70341;56.408;10.874;2024-03-02T01:22:02;100768.61;;;19.95;44.33
80781;BME280;70341;56.408;10.874;2024-03-02T01:24:32;100765.56;;;19.95;44.49
80781;BME280;70341;56.408;10.874;2024-03-02T01:27:00;100761.16;;;19.94;44.35
80781;BME280;70341;56.408;10.874;2024-03-02T01:29:31;100759.23;;;19.93;44.36
80781;BME280;70341;56.408;10.874;2024-03-02T01:31:59;100765.90;;;19.93;44.40
80781;BME280;70341;56.408;10.874;2024-03-02T01:34:30;100765.91;;;19.93;44.15
80781;BME280;70341;56.408;10.874;2024-03-02T01:36:58;100765.79;;;19.92;44.32
80781;BME280;70341;56.408;10.874;2024-03-02T01:39:28;100766.55;;;19.91;44.32
80781;BME280;70341;56.408;10.874;2024-03-02T01:41:56;100769.08;;;19.91;44.28
80781;BME280;70341;56.408;10.874;2024-03-02T01:44:26;100767.35;;;19.91;44.14
80781;BME280;70341;56.408;10.874;2024-03-02T01:46:54;100769.02;;;19.90;44.24
80781;BME280;70341;56.408;10.874;2024-03-02T01:49:25;100765.98;;;19.90;44.22
80781;BME280;70341;56.408;10.874;2024-03-02T01:51:53;100772.17;;;19.89;44.23
80781;BME280;70341;56.408;10.874;2024-03-02T01:54:23;100762.86;;;19.88;44.15
80781;BME280;70341;56.408;10.874;2024-03-02T01:56:52;100757.42;;;19.89;44.07
80781;BME280;70341;56.408;10.874;2024-03-02T01:59:22;100752.80;;;19.88;44.04
80781;BME280;70341;56.408;10.874;2024-03-02T02:01:50;100755.33;;;19.88;44.09
80781;BME280;70341;56.408;10.874;2024-03-02T02:04:20;100749.42;;;19.87;44.15
80781;BME280;70341;56.408;10.874;2024-03-02T02:06:48;100748.71;;;19.87;44.04
80781;BME280;70341;56.408;10.874;2024-03-02T02:09:18;100744.41;;;19.87;44.13
80781;BME280;70341;56.408;10.874;2024-03-02T02:11:46;100745.00;;;19.86;43.95
80781;BME280;70341;56.408;10.874;2024-03-02T02:14:16;100741.44;;;19.85;44.02
80781;BME280;70341;56.408;10.874;2024-03-02T02:16:44;100746.67;;;19.85;43.97
80781;BME280;70341;56.408;10.874;2024-03-02T02:19:15;100751.08;;;19.84;43.89
80781;BME280;70341;56.408;10.874;2024-03-02T02:21:43;100748.94;;;19.84;43.97
80781;BME280;70341;56.408;10.874;2024-03-02T02:24:13;100741.64;;;19.83;43.98
80781;BME280;70341;56.408;10.874;2024-03-02T02:26:41;100741.12;;;19.83;43.94
80781;BME280;70341;56.408;10.874;2024-03-02T02:29:12;100735.88;;;19.83;43.96
80781;BME280;70341;56.408;10.874;2024-03-02T02:31:41;100737.58;;;19.82;43.84
80781;BME280;70341;56.408;10.874;2024-03-02T02:34:11;100742.47;;;19.82;43.90
80781;BME280;70341;56.408;10.874;2024-03-02T02:36:40;100738.17;;;19.81;43.86
80781;BME280;70341;56.408;10.874;2024-03-02T02:39:17;100729.20;;;19.81;43.77
80781;BME280;70341;56.408;10.874;2024-03-02T02:41:48;100725.11;;;19.80;43.81
80781;BME280;70341;56.408;10.874;2024-03-02T02:44:16;100722.94;;;19.80;43.77
80781;BME280;70341;56.408;10.874;2024-03-02T02:46:46;100719.89;;;19.80;43.75
80781;BME280;70341;56.408;10.874;2024-03-02T02:49:14;100719.92;;;19.79;43.62
80781;BME280;70341;56.408;10.874;2024-03-02T02:51:45;100723.23;;;19.79;43.71
80781;BME280;70341;56.408;10.874;2024-03-02T02:54:13;100724.30;;;19.79;43.72
80781;BME280;70341;56.408;10.874;2024-03-02T02:56:43;100724.17;;;19.78;43.66
80781;BME280;70341;56.408;10.874;2024-03-02T02:59:11;100721.13;;;19.78;43.68
80781;BME280;70341;56.408;10.874;2024-03-02T03:01:42;100719.50;;;19.78;43.69
80781;BME280;70341;56.408;10.874;2024-03-02T03:04:10;100713.17;;;19.78;43.69
80781;BME280;70341;56.408;10.874;2024-03-02T03:06:41;100711.04;;;19.78;43.72
80781;BME280;70341;56.408;10.874;2024-03-02T03:09:09;100708.85;;;19.78;43.67
80781;BME280;70341;56.408;10.874;2024-03-02T03:11:40;100702.98;;;19.77;43.68
80781;BME280;70341;56.408;10.874;2024-03-02T03:14:08;100702.41;;;19.77;43.68
80781;BME280;70341;56.408;10.874;2024-03-02T03:16:38;100707.11;;;19.77;43.63
80781;BME280;70341;56.408;10.874;2024-03-02T03:19:06;100703.13;;;19.77;43.67
80781;BME280;70341;56.408;10.874;2024-03-02T03:21:36;100703.52;;;19.77;43.77
80781;BME280;70341;56.408;10.874;2024-03-02T03:24:04;100700.08;;;19.77;43.68
80781;BME280;70341;56.408;10.874;2024-03-02T03:26:36;100700.45;;;19.77;43.75
80781;BME280;70341;56.408;10.874;2024-03-02T03:29:04;100698.98;;;19.77;43.75
80781;BME280;70341;56.408;10.874;2024-03-02T03:31:34;100691.21;;;19.77;43.71
80781;BME280;70341;56.408;10.874;2024-03-02T03:34:02;100690.48;;;19.78;43.81
80781;BME280;70341;56.408;10.874;2024-03-02T03:36:32;100690.45;;;19.78;43.83
80781;BME280;70341;56.408;10.874;2024-03-02T03:39:00;100690.14;;;19.78;43.78
80781;BME280;70341;56.408;10.874;2024-03-02T03:41:30;100687.27;;;19.77;43.72
80781;BME280;70341;56.408;10.874;2024-03-02T03:43:59;100689.18;;;19.78;43.82
80781;BME280;70341;56.408;10.874;2024-03-02T03:46:29;100696.63;;;19.77;43.77
80781;BME280;70341;56.408;10.874;2024-03-02T03:48:57;100691.93;;;19.77;43.76
80781;BME280;70341;56.408;10.874;2024-03-02T03:51:27;100697.17;;;19.77;43.89
80781;BME280;70341;56.408;10.874;2024-03-02T03:53:55;100698.95;;;19.78;43.78
80781;BME280;70341;56.408;10.874;2024-03-02T03:56:25;100700.08;;;19.77;43.82
80781;BME280;70341;56.408;10.874;2024-03-02T03:58:53;100699.48;;;19.78;43.79
80781;BME280;70341;56.408;10.874;2024-03-02T04:01:24;100698.21;;;19.78;43.89
80781;BME280;70341;56.408;10.874;2024-03-02T04:03:52;100697.48;;;19.78;43.86
80781;BME280;70341;56.408;10.874;2024-03-02T04:06:22;100697.45;;;19.78;44.01
80781;BME280;70341;56.408;10.874;2024-03-02T04:08:50;100701.63;;;19.78;43.92
80781;BME280;70341;56.408;10.874;2024-03-02T04:11:21;100696.32;;;19.79;43.90
80781;BME280;70341;56.408;10.874;2024-03-02T04:13:50;100691.84;;;19.79;43.86
80781;BME280;70341;56.408;10.874;2024-03-02T04:16:20;100686.81;;;19.78;43.81
80781;BME280;70341;56.408;10.874;2024-03-02T04:18:49;100690.55;;;19.79;43.89
80781;BME280;70341;56.408;10.874;2024-03-02T04:21:18;100690.58;;;19.79;43.81
80781;BME280;70341;56.408;10.874;2024-03-02T04:23:47;100690.72;;;19.79;43.83
80781;BME280;70341;56.408;10.874;2024-03-02T04:26:17;100692.67;;;19.79;43.88
80781;BME280;70341;56.408;10.874;2024-03-02T04:28:46;100693.77;;;19.79;43.75
80781;BME280;70341;56.408;10.874;2024-03-02T04:31:16;100695.58;;;19.79;43.76
80781;BME280;70341;56.408;10.874;2024-03-02T04:33:45;100699.67;;;19.80;43.76
80781;BME280;70341;56.408;10.874;2024-03-02T04:36:15;100701.44;;;19.81;43.80
80781;BME280;70341;56.408;10.874;2024-03-02T04:38:43;100699.64;;;19.81;43.84
80781;BME280;70341;56.408;10.874;2024-03-02T04:41:14;100700.55;;;19.81;43.79
80781;BME280;70341;56.408;10.874;2024-03-02T04:43:42;100703.05;;;19.81;43.85
80781;BME280;70341;56.408;10.874;2024-03-02T04:46:12;100698.68;;;19.81;43.82
80781;BME280;70341;56.408;10.874;2024-03-02T04:48:40;100695.77;;;19.82;43.73
80781;BME280;70341;56.408;10.874;2024-03-02T04:51:10;100696.29;;;19.82;43.72
80781;BME280;70341;56.408;10.874;2024-03-02T04:53:38;100696.43;;;19.82;43.69
80781;BME280;70341;56.408;10.874;2024-03-02T04:56:09;100697.84;;;19.83;43.60
80781;BME280;70341;56.408;10.874;2024-03-02T04:58:37;100698.20;;;19.83;43.69
80781;BME280;70341;56.408;10.874;2024-03-02T05:01:08;100698.60;;;19.82;43.69
80781;BME280;70341;56.408;10.874;2024-03-02T05:03:36;100700.89;;;19.83;43.61
80781;BME280;70341;56.408;10.874;2024-03-02T05:06:06;100692.23;;;19.83;43.68
80781;BME280;70341;56.408;10.874;2024-03-02T05:08:34;100696.53;;;19.83;43.61
80781;BME280;70341;56.408;10.874;2024-03-02T05:11:04;100690.58;;;19.83;43.67
80781;BME280;70341;56.408;10.874;2024-03-02T05:13:32;100685.20;;;19.83;43.61
80781;BME280;70341;56.408;10.874;2024-03-02T05:16:03;100683.89;;;19.83;43.72
80781;BME280;70341;56.408;10.874;2024-03-02T05:18:31;100687.30;;;19.84;43.62
80781;BME280;70341;56.408;10.874;2024-03-02T05:21:03;100689.30;;;19.83;43.59
80781;BME280;70341;56.408;10.874;2024-03-02T05:23:31;100686.05;;;19.84;43.56
80781;BME280;70341;56.408;10.874;2024-03-02T05:26:01;100688.93;;;19.84;43.63
80781;BME280;70341;56.408;10.874;2024-03-02T05:28:29;100694.34;;;19.84;43.56
80781;BME280;70341;56.408;10.874;2024-03-02T05:31:00;100688.54;;;19.84;43.60
80781;BME280;70341;56.408;10.874;2024-03-02T05:33:28;100677.94;;;19.83;43.60
80781;BME280;70341;56.408;10.874;2024-03-02T05:35:58;100678.48;;;19.84;43.60
80781;BME280;70341;56.408;10.874;2024-03-02T05:38:26;100682.84;;;19.83;43.51
80781;BME280;70341;56.408;10.874;2024-03-02T05:40:57;100686.58;;;19.84;43.54
80781;BME280;70341;56.408;10.874;2024-03-02T05:43:25;100685.48;;;19.84;43.52
80781;BME280;70341;56.408;10.874;2024-03-02T05:45:56;100689.25;;;19.84;43.59
80781;BME280;70341;56.408;10.874;2024-03-02T05:48:24;100688.73;;;19.84;43.50
80781;BME280;70341;56.408;10.874;2024-03-02T05:50:54;100688.73;;;19.84;43.61
80781;BME280;70341;56.408;10.874;2024-03-02T05:53:22;100686.62;;;19.83;43.51
80781;BME280;70341;56.408;10.874;2024-03-02T05:55:53;100693.98;;;19.84;43.42
80781;BME280;70341;56.408;10.874;2024-03-02T05:58:22;100692.91;;;19.83;43.47
80781;BME280;70341;56.408;10.874;2024-03-02T06:00:51;100696.68;;;19.84;43.41
80781;BME280;70341;56.408;10.874;2024-03-02T06:03:20;100697.23;;;19.84;43.45
80781;BME280;70341;56.408;10.874;2024-03-02T06:05:49;100703.39;;;19.83;43.31
80781;BME280;70341;56.408;10.874;2024-03-02T06:08:18;100703.91;;;19.84;43.44
80781;BME280;70341;56.408;10.874;2024-03-02T06:10:48;100706.56;;;19.84;43.39
80781;BME280;70341;56.408;10.874;2024-03-02T06:13:17;100707.13;;;19.84;43.37
80781;BME280;70341;56.408;10.874;2024-03-02T06:15:47;100708.58;;;19.84;43.31
80781;BME280;70341;56.408;10.874;2024-03-02T06:18:15;100713.11;;;19.83;43.34
80781;BME280;70341;56.408;10.874;2024-03-02T06:20:45;100708.21;;;19.84;43.41
80781;BME280;70341;56.408;10.874;2024-03-02T06:23:14;100707.70;;;19.83;43.33
80781;BME280;70341;56.408;10.874;2024-03-02T06:25:43;100714.73;;;19.84;43.29
80781;BME280;70341;56.408;10.874;2024-03-02T06:28:12;100714.73;;;19.84;43.29
80781;BME280;70341;56.408;10.874;2024-03-02T06:30:42;100721.22;;;19.84;43.23
80781;BME280;70341;56.408;10.874;2024-03-02T06:33:11;100718.20;;;19.83;43.36
80781;BME280;70341;56.408;10.874;2024-03-02T06:35:40;100715.33;;;19.83;43.34
80781;BME280;70341;56.408;10.874;2024-03-02T06:38:09;100715.89;;;19.82;43.29
80781;BME280;70341;56.408;10.874;2024-03-02T06:40:38;100712.52;;;19.82;43.35
80781;BME280;70341;56.408;10.874;2024-03-02T06:43:07;100712.12;;;19.82;43.26
80781;BME280;70341;56.408;10.874;2024-03-02T06:45:36;100709.61;;;19.82;43.42
80781;BME280;70341;56.408;10.874;2024-03-02T06:48:05;100714.63;;;19.83;43.44
80781;BME280;70341;56.408;10.874;2024-03-02T06:50:35;100713.23;;;19.82;43.83
80781;BME280;70341;56.408;10.874;2024-03-02T06:53:04;100714.66;;;19.82;44.13
80781;BME280;70341;56.408;10.874;2024-03-02T06:55:34;100711.79;;;19.82;44.16
80781;BME280;70341;56.408;10.874;2024-03-02T06:58:03;100715.31;;;19.83;44.51
80781;BME280;70341;56.408;10.874;2024-03-02T07:00:32;100712.41;;;19.83;44.79
80781;BME280;70341;56.408;10.874;2024-03-02T07:03:01;100715.45;;;19.84;45.20
80781;BME280;70341;56.408;10.874;2024-03-02T07:05:30;100717.36;;;19.84;45.55
80781;BME280;70341;56.408;10.874;2024-03-02T07:07:59;100714.29;;;19.84;45.69
80781;BME280;70341;56.408;10.874;2024-03-02T07:10:28;100714.06;;;19.85;45.67
80781;BME280;70341;56.408;10.874;2024-03-02T07:12:57;100715.59;;;19.86;45.72
80781;BME280;70341;56.408;10.874;2024-03-02T07:15:27;100713.67;;;19.87;45.67
80781;BME280;70341;56.408;10.874;2024-03-02T07:17:55;100708.98;;;19.88;45.52
80781;BME280;70341;56.408;10.874;2024-03-02T07:20:25;100710.40;;;19.88;45.39
80781;BME280;70341;56.408;10.874;2024-03-02T07:22:53;100712.12;;;19.89;45.25
80781;BME280;70341;56.408;10.874;2024-03-02T07:25:24;100708.45;;;19.90;45.23
80781;BME280;70341;56.408;10.874;2024-03-02T07:27:56;100708.62;;;19.90;45.16
80781;BME280;70341;56.408;10.874;2024-03-02T07:30:25;100708.98;;;19.90;45.01
80781;BME280;70341;56.408;10.874;2024-03-02T07:32:54;100705.55;;;19.90;44.93
80781;BME280;70341;56.408;10.874;2024-03-02T07:35:25;100706.07;;;19.90;45.00
80781;BME280;70341;56.408;10.874;2024-03-02T07:37:54;100706.04;;;19.90;44.93
80781;BME280;70341;56.408;10.874;2024-03-02T07:40:24;100705.18;;;19.90;44.85
80781;BME280;70341;56.408;10.874;2024-03-02T07:42:52;100704.61;;;19.90;44.82
80781;BME280;70341;56.408;10.874;2024-03-02T07:45:22;100703.33;;;19.90;44.72
80781;BME280;70341;56.408;10.874;2024-03-02T07:47:50;100705.87;;;19.90;44.82
80781;BME280;70341;56.408;10.874;2024-03-02T07:50:20;100700.30;;;19.90;44.65
80781;BME280;70341;56.408;10.874;2024-03-02T07:52:48;100691.97;;;19.90;44.61
80781;BME280;70341;56.408;10.874;2024-03-02T07:55:18;100695.58;;;19.90;44.69
80781;BME280;70341;56.408;10.874;2024-03-02T07:57:47;100695.75;;;19.90;44.48
80781;BME280;70341;56.408;10.874;2024-03-02T08:00:16;100696.13;;;19.90;44.56
80781;BME280;70341;56.408;10.874;2024-03-02T08:02:45;100694.88;;;19.90;44.53
80781;BME280;70341;56.408;10.874;2024-03-02T08:05:15;100690.35;;;19.90;44.41
80781;BME280;70341;56.408;10.874;2024-03-02T08:07:44;100696.33;;;19.90;44.38
80781;BME280;70341;56.408;10.874;2024-03-02T08:10:14;100692.68;;;19.90;44.34
80781;BME280;70341;56.408;10.874;2024-03-02T08:12:42;100694.64;;;19.91;44.35
80781;BME280;70341;56.408;10.874;2024-03-02T08:15:12;100689.91;;;19.91;44.31
80781;BME280;70341;56.408;10.874;2024-03-02T08:17:40;100689.89;;;19.92;44.24
80781;BME280;70341;56.408;10.874;2024-03-02T08:20:11;100691.87;;;19.92;44.12
80781;BME280;70341;56.408;10.874;2024-03-02T08:22:40;100695.42;;;19.93;44.09
80781;BME280;70341;56.408;10.874;2024-03-02T08:25:09;100697.94;;;19.93;44.09
80781;BME280;70341;56.408;10.874;2024-03-02T08:27:40;100696.65;;;19.93;44.09
80781;BME280;70341;56.408;10.874;2024-03-02T08:30:10;100693.72;;;19.94;44.18
80781;BME280;70341;56.408;10.874;2024-03-02T08:32:39;100694.70;;;19.95;44.24
80781;BME280;70341;56.408;10.874;2024-03-02T08:35:09;100693.66;;;19.96;44.46
80781;BME280;70341;56.408;10.874;2024-03-02T08:37:39;100696.68;;;19.99;44.38
80781;BME280;70341;56.408;10.874;2024-03-02T08:40:09;100698.90;;;20.00;44.54
80781;BME280;70341;56.408;10.874;2024-03-02T08:42:39;100698.91;;;20.03;44.48
80781;BME280;70341;56.408;10.874;2024-03-02T08:45:09;100700.23;;;20.04;44.52
80781;BME280;70341;56.408;10.874;2024-03-02T08:47:38;100700.21;;;20.04;44.43
80781;BME280;70341;56.408;10.874;2024-03-02T08:50:08;100701.64;;;20.05;44.50
80781;BME280;70341;56.408;10.874;2024-03-02T08:52:36;100698.38;;;20.05;44.53
80781;BME280;70341;56.408;10.874;2024-03-02T08:55:07;100700.13;;;20.06;44.61
80781;BME280;70341;56.408;10.874;2024-03-02T08:57:35;100700.34;;;20.08;44.95
80781;BME280;70341;56.408;10.874;2024-03-02T09:00:06;100698.39;;;20.10;44.98
80781;BME280;70341;56.408;10.874;2024-03-02T09:02:34;100698.09;;;20.11;44.92
80781;BME280;70341;56.408;10.874;2024-03-02T09:05:05;100695.14;;;20.12;44.74
80781;BME280;70341;56.408;10.874;2024-03-02T09:07:34;100695.42;;;20.13;44.71
80781;BME280;70341;56.408;10.874;2024-03-02T09:10:07;100692.64;;;20.14;44.57
80781;BME280;70341;56.408;10.874;2024-03-02T09:12:37;100693.90;;;20.14;44.45
80781;BME280;70341;56.408;10.874;2024-03-02T09:15:08;100690.25;;;20.14;44.37
80781;BME280;70341;56.408;10.874;2024-03-02T09:17:36;100693.02;;;20.14;44.34
80781;BME280;70341;56.408;10.874;2024-03-02T09:20:07;100696.23;;;20.14;44.25
80781;BME280;70341;56.408;10.874;2024-03-02T09:22:35;100697.80;;;20.14;44.21
80781;BME280;70341;56.408;10.874;2024-03-02T09:25:06;100696.70;;;20.15;44.16
80781;BME280;70341;56.408;10.874;2024-03-02T09:27:39;100692.89;;;20.15;44.08
80781;BME280;70341;56.408;10.874;2024-03-02T09:30:09;100693.55;;;20.16;43.92
80781;BME280;70341;56.408;10.874;2024-03-02T09:32:38;100694.06;;;20.16;43.86
80781;BME280;70341;56.408;10.874;2024-03-02T09:35:08;100696.84;;;20.17;43.93
80781;BME280;70341;56.408;10.874;2024-03-02T09:37:36;100698.98;;;20.17;43.83
80781;BME280;70341;56.408;10.874;2024-03-02T09:40:07;100697.14;;;20.18;43.79
80781;BME280;70341;56.408;10.874;2024-03-02T09:42:35;100697.45;;;20.19;43.84
80781;BME280;70341;56.408;10.874;2024-03-02T09:45:06;100698.29;;;20.20;43.74
80781;BME280;70341;56.408;10.874;2024-03-02T09:47:35;100703.31;;;20.20;43.68
80781;BME280;70341;56.408;10.874;2024-03-02T09:50:05;100698.04;;;20.20;43.60
80781;BME280;70341;56.408;10.874;2024-03-02T09:52:36;100703.16;;;20.22;43.62
80781;BME280;70341;56.408;10.874;2024-03-02T09:55:05;100702.42;;;20.22;43.54
80781;BME280;70341;56.408;10.874;2024-03-02T09:57:34;100701.73;;;20.22;43.52
80781;BME280;70341;56.408;10.874;2024-03-02T10:00:05;100702.89;;;20.23;43.52
80781;BME280;70341;56.408;10.874;2024-03-02T10:02:34;100701.63;;;20.23;43.35
80781;BME280;70341;56.408;10.874;2024-03-02T10:05:04;100697.30;;;20.23;43.37
80781;BME280;70341;56.408;10.874;2024-03-02T10:07:32;100699.19;;;20.24;43.41
80781;BME280;70341;56.408;10.874;2024-03-02T10:10:20;100697.71;;;20.24;43.34
80781;BME280;70341;56.408;10.874;2024-03-02T10:13:04;100692.62;;;20.25;43.45
80781;BME280;70341;56.408;10.874;2024-03-02T10:15:35;100690.40;;;20.26;43.26
80781;BME280;70341;56.408;10.874;2024-03-02T10:18:04;100693.20;;;20.26;43.31
80781;BME280;70341;56.408;10.874;2024-03-02T10:20:34;100699.95;;;20.28;43.29
80781;BME280;70341;56.408;10.874;2024-03-02T10:23:16;100698.80;;;20.28;43.25
80781;BME280;70341;56.408;10.874;2024-03-02T10:25:45;100705.47;;;20.28;43.21
80781;BME280;70341;56.408;10.874;2024-03-02T10:28:26;100704.52;;;20.29;43.15
80781;BME280;70341;56.408;10.874;2024-03-02T10:30:55;100705.02;;;20.29;43.16
80781;BME280;70341;56.408;10.874;2024-03-02T10:33:24;100705.71;;;20.30;43.16
80781;BME280;70341;56.408;10.874;2024-03-02T10:35:53;100705.91;;;20.30;43.10
80781;BME280;70341;56.408;10.874;2024-03-02T10:38:22;100705.00;;;20.30;43.09
80781;BME280;70341;56.408;10.874;2024-03-02T10:40:51;100708.10;;;20.29;43.04
80781;BME280;70341;56.408;10.874;2024-03-02T10:43:21;100708.08;;;20.30;43.02
80781;BME280;70341;56.408;10.874;2024-03-02T10:45:52;100709.17;;;20.29;43.05
80781;BME280;70341;56.408;10.874;2024-03-02T10:48:25;100707.05;;;20.29;42.98
80781;BME280;70341;56.408;10.874;2024-03-02T10:50:55;100710.80;;;20.30;42.99
80781;BME280;70341;56.408;10.874;2024-03-02T10:53:24;100711.13;;;20.30;42.96
80781;BME280;70341;56.408;10.874;2024-03-02T10:55:58;100711.48;;;20.30;43.01
80781;BME280;70341;56.408;10.874;2024-03-02T10:58:32;100712.90;;;20.30;42.98
80781;BME280;70341;56.408;10.874;2024-03-02T11:01:03;100709.08;;;20.31;42.91
80781;BME280;70341;56.408;10.874;2024-03-02T11:03:36;100719.15;;;20.31;42.78
80781;BME280;70341;56.408;10.874;2024-03-02T11:06:08;100716.81;;;20.31;42.81
80781;BME280;70341;56.408;10.874;2024-03-02T11:08:40;100717.02;;;20.31;42.85
80781;BME280;70341;56.408;10.874;2024-03-02T11:11:20;100721.19;;;20.30;42.85
80781;BME280;70341;56.408;10.874;2024-03-02T11:13:56;100723.55;;;20.30;42.88
80781;BME280;70341;56.408;10.874;2024-03-02T11:16:36;100724.13;;;20.30;42.84
80781;BME280;70341;56.408;10.874;2024-03-02T11:19:10;100725.99;;;20.29;42.84
80781;BME280;70341;56.408;10.874;2024-03-02T11:21:46;100729.05;;;20.29;42.80
80781;BME280;70341;56.408;10.874;2024-03-02T11:26:52;100732.71;;;20.29;42.87
80781;BME280;70341;56.408;10.874;2024-03-02T11:32:21;100730.89;;;20.29;42.76
80781;BME280;70341;56.408;10.874;2024-03-02T11:34:51;100732.89;;;20.29;42.83
80781;BME280;70341;56.408;10.874;2024-03-02T11:37:20;100735.36;;;20.29;42.78
80781;BME280;70341;56.408;10.874;2024-03-02T11:39:51;100729.22;;;20.29;42.85
80781;BME280;70341;56.408;10.874;2024-03-02T11:42:19;100729.16;;;20.30;42.69
80781;BME280;70341;56.408;10.874;2024-03-02T11:44:49;100727.89;;;20.30;42.70
80781;BME280;70341;56.408;10.874;2024-03-02T11:47:17;100728.20;;;20.31;42.75
80781;BME280;70341;56.408;10.874;2024-03-02T11:49:51;100734.27;;;20.32;42.81
80781;BME280;70341;56.408;10.874;2024-03-02T11:52:20;100734.51;;;20.33;42.75
80781;BME280;70341;56.408;10.874;2024-03-02T11:54:50;100735.71;;;20.35;42.84
80781;BME280;70341;56.408;10.874;2024-03-02T11:57:20;100737.81;;;20.35;42.76
80781;BME280;70341;56.408;10.874;2024-03-02T11:59:51;100741.02;;;20.36;42.70
80781;BME280;70341;56.408;10.874;2024-03-02T12:02:20;100742.54;;;20.37;42.69
80781;BME280;70341;56.408;10.874;2024-03-02T12:04:50;100751.30;;;20.38;42.77
80781;BME280;70341;56.408;10.874;2024-03-02T12:07:23;100753.59;;;20.39;42.75
80781;BME280;70341;56.408;10.874;2024-03-02T12:10:01;100757.65;;;20.40;42.69
80781;BME280;70341;56.408;10.874;2024-03-02T12:12:31;100756.32;;;20.41;42.90
80781;BME280;70341;56.408;10.874;2024-03-02T12:15:00;100748.86;;;20.42;42.71
80781;BME280;70341;56.408;10.874;2024-03-02T12:17:30;100754.05;;;20.42;42.70
80781;BME280;70341;56.408;10.874;2024-03-02T12:19:59;100752.75;;;20.43;42.63
80781;BME280;70341;56.408;10.874;2024-03-02T12:22:29;100751.64;;;20.43;42.60
80781;BME280;70341;56.408;10.874;2024-03-02T12:24:57;100759.17;;;20.43;42.62
80781;BME280;70341;56.408;10.874;2024-03-02T12:27:27;100757.58;;;20.43;42.57
80781;BME280;70341;56.408;10.874;2024-03-02T12:29:55;100761.51;;;20.44;42.62
80781;BME280;70341;56.408;10.874;2024-03-02T12:32:25;100756.66;;;20.43;42.59
80781;BME280;70341;56.408;10.874;2024-03-02T12:34:54;100756.27;;;20.44;42.54
80781;BME280;70341;56.408;10.874;2024-03-02T12:37:24;100758.97;;;20.44;42.59
80781;BME280;70341;56.408;10.874;2024-03-02T12:39:52;100757.84;;;20.45;42.50
80781;BME280;70341;56.408;10.874;2024-03-02T12:42:24;100761.77;;;20.45;42.50
80781;BME280;70341;56.408;10.874;2024-03-02T12:44:52;100758.77;;;20.46;42.52
80781;BME280;70341;56.408;10.874;2024-03-02T12:47:22;100762.02;;;20.47;42.45
80781;BME280;70341;56.408;10.874;2024-03-02T12:49:51;100762.15;;;20.47;42.44
80781;BME280;70341;56.408;10.874;2024-03-02T12:52:20;100761.89;;;20.48;42.51
80781;BME280;70341;56.408;10.874;2024-03-02T12:54:50;100760.56;;;20.49;42.43
80781;BME280;70341;56.408;10.874;2024-03-02T12:57:20;100762.88;;;20.49;42.42
80781;BME280;70341;56.408;10.874;2024-03-02T12:59:48;100765.02;;;20.49;42.39